sensor_id;sensor_type;location;lat;lon;timestamp;temperature;humidity
12043;DHT22;6082;49.306;12.862;2022-07-23T00:03:41;21.70;99.00
12043;DHT22;6082;49.306;12.862;2022-07-23T00:06:07;21.60;99.30
12043;DHT22;6082;49.306;12.862;2022-07-23T00:08:33;21.60;99.40
12043;DHT22;6082;49.306;12.862;2022-07-23T00:10:59;21.60;99.50
12043;DHT22;6082;49.306;12.862;2022-07-23T00:13:26;21.50;99.90
12043;DHT22;6082;49.306;12.862;2022-07-23T00:15:51;21.50;99.80
12043;DHT22;6082;49.306;12.862;2022-07-23T00:18:17;21.50;99.90
12043;DHT22;6082;49.306;12.862;2022-07-23T00:20:43;21.40;99.90
12043;DHT22;6082;49.306;12.862;2022-07-23T00:23:09;21.40;99.90
12043;DHT22;6082;49.306;12.862;2022-07-23T00:25:35;21.40;99.90
12043;DHT22;6082;49.306;12.862;2022-07-23T00:28:01;21.40;99.90
12043;DHT22;6082;49.306;12.862;2022-07-23T00:30:28;21.40;99.90
12043;DHT22;6082;49.306;12.862;2022-07-23T00:32:59;21.40;99.90
12043;DHT22;6082;49.306;12.862;2022-07-23T00:50:07;21.20;99.90
12043;DHT22;6082;49.306;12.862;2022-07-23T00:52:34;21.10;99.20
12043;DHT22;6082;49.306;12.862;2022-07-23T00:55:00;20.90;99.70
12043;DHT22;6082;49.306;12.862;2022-07-23T00:57:26;20.80;99.90
12043;DHT22;6082;49.306;12.862;2022-07-23T00:59:52;20.70;99.90
12043;DHT22;6082;49.306;12.862;2022-07-23T01:02:18;20.60;99.90
12043;DHT22;6082;49.306;12.862;2022-07-23T01:04:43;20.60;99.90
12043;DHT22;6082;49.306;12.862;2022-07-23T01:07:09;20.60;99.90
12043;DHT22;6082;49.306;12.862;2022-07-23T01:09:36;20.60;99.90
12043;DHT22;6082;49.306;12.862;2022-07-23T01:12:03;20.70;99.90
12043;DHT22;6082;49.306;12.862;2022-07-23T01:14:29;20.70;99.90
12043;DHT22;6082;49.306;12.862;2022-07-23T01:16:55;20.70;99.90
12043;DHT22;6082;49.306;12.862;2022-07-23T01:19:21;20.60;99.90
12043;DHT22;6082;49.306;12.862;2022-07-23T01:21:48;20.60;99.90
12043;DHT22;6082;49.306;12.862;2022-07-23T01:24:16;20.70;99.90
12043;DHT22;6082;49.306;12.862;2022-07-23T01:26:44;20.70;99.90
12043;DHT22;6082;49.306;12.862;2022-07-23T01:29:10;20.70;99.90
12043;DHT22;6082;49.306;12.862;2022-07-23T01:31:36;20.70;99.90
12043;DHT22;6082;49.306;12.862;2022-07-23T01:34:02;20.60;99.90
12043;DHT22;6082;49.306;12.862;2022-07-23T01:36:28;20.60;99.90
12043;DHT22;6082;49.306;12.862;2022-07-23T01:38:54;20.60;99.90
12043;DHT22;6082;49.306;12.862;2022-07-23T01:41:20;20.60;99.90
12043;DHT22;6082;49.306;12.862;2022-07-23T01:43:46;20.50;99.90
12043;DHT22;6082;49.306;12.862;2022-07-23T01:46:12;20.60;99.90
12043;DHT22;6082;49.306;12.862;2022-07-23T01:48:38;20.60;99.90
12043;DHT22;6082;49.306;12.862;2022-07-23T01:51:04;20.50;99.90
12043;DHT22;6082;49.306;12.862;2022-07-23T01:53:29;20.40;99.90
12043;DHT22;6082;49.306;12.862;2022-07-23T01:55:57;20.40;99.90
12043;DHT22;6082;49.306;12.862;2022-07-23T01:58:24;20.30;99.90
12043;DHT22;6082;49.306;12.862;2022-07-23T02:00:49;20.20;99.90
12043;DHT22;6082;49.306;12.862;2022-07-23T02:03:15;20.20;99.90
12043;DHT22;6082;49.306;12.862;2022-07-23T02:05:41;20.20;99.90
12043;DHT22;6082;49.306;12.862;2022-07-23T02:08:07;20.10;99.90
12043;DHT22;6082;49.306;12.862;2022-07-23T02:12:59;20.10;99.90
12043;DHT22;6082;49.306;12.862;2022-07-23T02:15:24;20.10;99.90
12043;DHT22;6082;49.306;12.862;2022-07-23T02:17:50;20.00;99.90
12043;DHT22;6082;49.306;12.862;2022-07-23T02:20:16;20.10;99.90
12043;DHT22;6082;49.306;12.862;2022-07-23T02:39:46;20.60;99.90
12043;DHT22;6082;49.306;12.862;2022-07-23T02:42:14;20.70;99.90
12043;DHT22;6082;49.306;12.862;2022-07-23T02:44:39;20.70;99.90
12043;DHT22;6082;49.306;12.862;2022-07-23T02:47:05;20.70;99.90
12043;DHT22;6082;49.306;12.862;2022-07-23T02:49:31;20.80;99.90
12043;DHT22;6082;49.306;12.862;2022-07-23T02:51:57;20.80;99.90
12043;DHT22;6082;49.306;12.862;2022-07-23T03:26:05;20.90;99.90
12043;DHT22;6082;49.306;12.862;2022-07-23T03:28:31;20.90;99.90
12043;DHT22;6082;49.306;12.862;2022-07-23T03:30:57;20.80;99.90
12043;DHT22;6082;49.306;12.862;2022-07-23T03:33:23;20.80;99.90
